Augusta, WV

7:08 AM EDT on September 03, 2015 (GMT -0400)
Ice Mountain | | Change Station
CLOSE
Current Station
Personal Weather Station
Location: Slanesville, WV
Elevation: 807 ft
Nearby Weather Stations

Elev 807 ft 39.35 °N, 78.50 °W | Updated 26 seconds ago

Fog
Fog
61.6 °F
Feels Like 61.6 °F
N
0.0
Wind Variable Wind from South
Gusts 1.0 mph

Today
High -- | Low -- °F
--% Chance of Precip.
Yesterday
High -- | Low -- °F
Precip. -- in
6:44 AM 7:42 PM
Waning Gibbous, 71% visible
Pressure 30.03 in
Visibility 0.2 miles
Clouds Overcast 100 ft
Dew Point 61 °F
Humidity 96%
Rainfall 0.00 in
Snow Depth Not available.
UV 0 out of 12
Pollen 9.40 out of 12
Air Quality Not available.
Flu Activity Not available.
METAR KCBE 031104Z AUTO 00000KT M1/4SM OVC001 19/19 A3003 RMK AO1
Pressure 30.03 in
Visibility 0.2 miles
Clouds Overcast 100 ft
Dew Point 61 °F
Humidity 96%
Rainfall 0.00 in
Snow Depth Not available.
UV 0 out of 12
Pollen 9.40 out of 12
Air Quality Not available.
Flu Activity Not available.
METAR KCBE 031104Z AUTO 00000KT M1/4SM OVC001 19/19 A3003 RMK AO1
Nowcast | as of 5:30 am EDT on September 3, 2015

Patchy dense fog is expected across portions of the Potomac Highlands this morning. Visibilities of a quarter mile or less are possible at times. Use caution while driving this morning especially on Interstate 68... in and around Cumberland Maryland.

×

10-Day Weather Forecast

×

Almanac

Astronomy

Sep. 03, 2015 Rise Set
Actual Time
Civil Twilight
Nautical Twilight
Astronomical Twilight
Moon
Length of Visible Light
Length of Day
Tomorrow will be .
, % of the Moon is Illuminated

Today's Extremes

State Highs State Lows

Community

WunderPhotos

Upload Photos

1,851,933 photos uploaded!

WunderBlogs® & News

Nearby

Air Quality

  Air Quality AQ Index Pollutant
Not available.

Snow Depth

Station Depth Elevation

Earthquake Activity

City Distance Mag. Time & Date
Minimum magnitude displayed is 2.5.

Coastal Water Temperatures

Place Temperature

Stations

Nearby Weather Stations

Station Location Temp. Windchill Dew Point Humidity Wind Precip. Elev Updated Type